Terminal Aerodrome Forecast
Issued by NWS Twin Cities, MN

Home | Current Version | Previous Version | Text Only | Print | Product List | Glossary On
Versions: 1 2 3 4 5 6 7 8 9 10 11 12 13 14 15 16 17 18 19 20 21 22 23 24 25 26 27
000
FTUS43 KMPX 071139
TAFMSP
TAF
KMSP 071139Z 0712/0818 24012G18KT P6SM SCT030 BKN050
     FM071800 28018G26KT 6SM BR VCSH OVC030
     FM072100 30022G32KT 3SM -SHSN BLSN OVC020
     FM080300 31023G35KT 2SM -SN BLSN OVC012
     FM081400 33021G30KT 3SM BLSN OVC020=

USA.gov is the U.S. government's official web portal to all federal, state and local government web resources and services.